createdAt,value
2018-03-14T00:01:21.288Z,24.40
2018-03-14T00:03:49.057Z,20.87
2018-03-14T00:06:16.592Z,23.40
2018-03-14T00:08:44.118Z,19.93
2018-03-14T00:11:11.674Z,24.93
2018-03-14T00:13:39.204Z,19.77
2018-03-14T00:16:07.061Z,21.33
2018-03-14T00:18:34.586Z,26.63
2018-03-14T00:21:02.129Z,22.93
2018-03-14T00:23:29.683Z,23.20
2018-03-14T00:25:57.201Z,18.50
2018-03-14T00:28:24.733Z,20.57
2018-03-14T00:30:52.255Z,25.07
2018-03-14T00:33:19.775Z,24.17
2018-03-14T00:35:47.333Z,23.37
2018-03-14T00:38:14.875Z,24.33
2018-03-14T00:40:42.393Z,24.90
2018-03-14T00:43:09.933Z,23.93
2018-03-14T00:45:37.799Z,22.10
2018-03-14T00:48:05.661Z,31.80
2018-03-14T00:50:33.162Z,27.40
2018-03-14T00:53:00.669Z,26.27
2018-03-14T00:55:28.209Z,25.67
2018-03-14T00:57:55.731Z,24.47
2018-03-14T01:00:23.279Z,26.40
2018-03-14T01:02:50.798Z,25.70
2018-03-14T01:05:18.689Z,23.67
2018-03-14T01:07:46.228Z,22.40
2018-03-14T01:10:13.768Z,23.60
2018-03-14T01:12:41.333Z,23.37
2018-03-14T01:15:08.857Z,24.70
2018-03-14T01:17:36.388Z,25.90
2018-03-14T01:20:03.930Z,24.10
2018-03-14T01:22:31.452Z,25.27
2018-03-14T01:25:00.228Z,25.03
2018-03-14T01:27:27.784Z,24.10
2018-03-14T01:29:55.624Z,22.43
2018-03-14T01:32:23.191Z,29.07
2018-03-14T01:34:50.704Z,20.93
2018-03-14T01:37:18.218Z,21.80
2018-03-14T01:39:45.775Z,21.57
2018-03-14T01:42:13.387Z,23.30
2018-03-14T01:44:41.196Z,20.43
2018-03-14T01:47:09.065Z,21.40
2018-03-14T01:49:36.828Z,24.03
2018-03-14T01:52:04.591Z,21.23
2018-03-14T01:54:32.183Z,24.57
2018-03-14T01:56:59.687Z,21.63
2018-03-14T01:59:27.206Z,21.77
2018-03-14T02:01:54.772Z,21.40
2018-03-14T02:04:22.606Z,21.33
2018-03-14T02:06:50.159Z,20.00
2018-03-14T02:09:17.928Z,22.13
2018-03-14T02:11:45.507Z,20.47
2018-03-14T02:14:13.091Z,16.03
2018-03-14T02:16:40.643Z,17.60
2018-03-14T02:19:08.291Z,22.63
2018-03-14T02:21:35.809Z,17.90
2018-03-14T02:24:03.323Z,17.73
2018-03-14T02:26:30.866Z,21.90
2018-03-14T02:28:58.374Z,17.13
2018-03-14T02:31:26.152Z,18.07
2018-03-14T02:33:53.672Z,22.50
2018-03-14T02:39:26.276Z,17.60
2018-03-14T02:41:54.103Z,17.07
2018-03-14T02:44:21.872Z,17.97
2018-03-14T02:46:49.378Z,20.00
2018-03-14T02:49:16.896Z,16.93
2018-03-14T02:51:44.472Z,15.40
2018-03-14T02:54:11.985Z,16.20
2018-03-14T02:56:39.489Z,15.47
2018-03-14T02:59:06.974Z,15.53
2018-03-14T03:01:34.480Z,15.00
2018-03-14T03:04:01.971Z,18.40
2018-03-14T03:06:29.501Z,18.20
2018-03-14T03:08:57.013Z,16.87
2018-03-14T03:11:24.527Z,14.50
2018-03-14T03:13:52.035Z,15.47
2018-03-14T03:16:19.543Z,19.30
2018-03-14T03:18:47.064Z,19.13
2018-03-14T03:21:14.622Z,16.67
2018-03-14T03:23:42.121Z,15.27
2018-03-14T03:26:09.650Z,16.57
2018-03-14T03:28:37.144Z,17.33
2018-03-14T03:31:04.684Z,18.80
2018-03-14T03:33:32.232Z,21.70
2018-03-14T03:36:00.033Z,17.70
2018-03-14T03:38:27.590Z,16.33
2018-03-14T03:40:55.107Z,17.63
2018-03-14T03:43:22.641Z,19.87
2018-03-14T03:45:50.146Z,17.10
2018-03-14T03:48:17.634Z,18.87
2018-03-14T03:50:45.157Z,17.43
2018-03-14T03:53:12.682Z,23.17
2018-03-14T03:55:40.236Z,17.17
2018-03-14T03:58:07.750Z,23.30
2018-03-14T04:00:35.246Z,18.97
2018-03-14T04:03:02.769Z,18.90
2018-03-14T04:05:30.315Z,17.03
2018-03-14T04:07:58.116Z,18.33
2018-03-14T04:10:25.993Z,18.50
2018-03-14T04:12:54.433Z,17.93
2018-03-14T04:15:21.950Z,18.20
2018-03-14T04:17:49.443Z,21.30
2018-03-14T04:20:17.254Z,21.90
2018-03-14T04:22:44.756Z,19.10
2018-03-14T04:25:12.263Z,17.67
2018-03-14T04:27:39.783Z,21.97
2018-03-14T04:30:07.287Z,16.90
2018-03-14T04:32:35.054Z,14.93
2018-03-14T04:35:02.574Z,18.73
2018-03-14T04:37:30.081Z,15.53
2018-03-14T04:39:57.838Z,18.43
2018-03-14T04:42:25.343Z,15.70
2018-03-14T04:44:52.865Z,17.73
2018-03-14T04:47:20.627Z,20.27
2018-03-14T04:49:48.131Z,21.30
2018-03-14T04:52:15.667Z,14.80
2018-03-14T04:54:43.161Z,20.50
2018-03-14T04:57:10.718Z,16.50
2018-03-14T04:59:38.218Z,20.50
2018-03-14T05:02:05.720Z,18.47
2018-03-14T05:04:33.560Z,15.97
2018-03-14T05:07:01.176Z,18.67
2018-03-14T05:09:28.705Z,17.50
2018-03-14T05:11:56.231Z,20.77
2018-03-14T05:14:23.727Z,16.13
2018-03-14T05:16:51.555Z,15.60
2018-03-14T05:19:19.325Z,19.80
2018-03-14T05:21:46.857Z,13.80
2018-03-14T05:24:14.364Z,15.40
2018-03-14T05:26:42.118Z,14.47
2018-03-14T05:29:09.648Z,15.73
2018-03-14T05:31:37.177Z,20.20
2018-03-14T05:34:04.703Z,15.30
2018-03-14T05:36:32.195Z,18.23
2018-03-14T05:38:59.719Z,18.07
2018-03-14T05:41:27.260Z,15.33
2018-03-14T05:43:54.791Z,17.10
2018-03-14T05:46:22.335Z,17.03
2018-03-14T05:48:49.846Z,15.40
2018-03-14T05:51:17.615Z,18.57
2018-03-14T05:53:45.168Z,21.17
2018-03-14T05:56:12.946Z,20.07
2018-03-14T05:58:40.527Z,16.53
2018-03-14T06:01:08.035Z,17.33
2018-03-14T06:03:35.529Z,21.93
2018-03-14T06:06:03.082Z,20.87
2018-03-14T06:08:30.610Z,16.40
2018-03-14T06:10:58.151Z,17.30
2018-03-14T06:13:25.663Z,18.83
2018-03-14T06:15:53.167Z,21.03
2018-03-14T06:18:20.714Z,16.70
2018-03-14T06:20:48.224Z,14.90
2018-03-14T06:23:16.110Z,15.33
2018-03-14T06:25:43.613Z,15.70
2018-03-14T06:28:11.163Z,16.43
2018-03-14T06:30:38.683Z,21.20
2018-03-14T06:33:06.264Z,16.23
2018-03-14T06:35:33.871Z,14.57
2018-03-14T06:38:01.401Z,19.07
2018-03-14T06:40:28.894Z,17.17
2018-03-14T06:42:56.417Z,17.73
2018-03-14T06:45:24.164Z,16.57
2018-03-14T06:47:51.751Z,19.40
2018-03-14T06:50:19.483Z,25.10
2018-03-14T06:52:47.025Z,15.50
2018-03-14T06:55:14.812Z,23.73
2018-03-14T06:57:42.677Z,19.80
2018-03-14T07:00:21.964Z,17.80
2018-03-14T07:02:49.601Z,16.90
2018-03-14T07:05:29.122Z,20.20
2018-03-14T07:07:56.878Z,19.20
2018-03-14T07:10:24.431Z,18.50
2018-03-14T07:12:51.968Z,21.10
2018-03-14T07:15:19.485Z,19.10
2018-03-14T07:17:47.048Z,18.63
2018-03-14T07:20:14.593Z,23.10
2018-03-14T07:22:42.104Z,20.83
2018-03-14T07:25:09.683Z,18.43
2018-03-14T07:27:37.317Z,17.93
2018-03-14T07:30:04.883Z,19.83
2018-03-14T07:32:32.404Z,17.50
2018-03-14T07:34:59.911Z,20.30
2018-03-14T07:37:27.453Z,25.63
2018-03-14T07:39:54.971Z,26.33
2018-03-14T07:42:22.517Z,24.00
2018-03-14T07:44:50.028Z,19.17
2018-03-14T07:47:17.572Z,19.10
2018-03-14T07:49:45.423Z,29.70
2018-03-14T07:52:12.935Z,19.83
2018-03-14T07:54:40.480Z,20.23
2018-03-14T07:57:07.998Z,19.83
2018-03-14T07:59:35.484Z,29.87
2018-03-14T08:02:03.018Z,22.50
2018-03-14T08:04:30.546Z,21.57
2018-03-14T08:06:58.251Z,30.10
2018-03-14T08:09:25.785Z,25.17
2018-03-14T08:11:53.346Z,30.33
2018-03-14T08:14:20.888Z,20.43
2018-03-14T08:16:48.454Z,24.83
2018-03-14T08:19:16.012Z,28.60
2018-03-14T08:21:43.534Z,27.43
2018-03-14T08:24:11.100Z,24.87
2018-03-14T08:26:38.685Z,25.13
2018-03-14T08:29:06.915Z,28.73
2018-03-14T08:31:34.459Z,22.23
2018-03-14T08:34:02.107Z,24.57
2018-03-14T08:36:29.631Z,20.63
2018-03-14T08:38:57.157Z,26.83
2018-03-14T08:41:24.820Z,31.00
2018-03-14T08:43:52.362Z,33.80
2018-03-14T08:46:19.879Z,31.47
2018-03-14T08:48:47.803Z,35.60
2018-03-14T08:51:15.528Z,23.83
2018-03-14T08:53:43.071Z,28.87
2018-03-14T08:56:10.607Z,29.93
2018-03-14T08:58:38.151Z,27.70
2018-03-14T09:01:05.889Z,26.37
2018-03-14T09:03:33.408Z,25.67
2018-03-14T09:06:01.505Z,23.77
2018-03-14T09:08:29.028Z,26.50
2018-03-14T09:10:56.633Z,32.03
2018-03-14T09:13:24.796Z,24.73
2018-03-14T09:15:52.655Z,25.03
2018-03-14T09:18:21.256Z,27.17
2018-03-14T09:20:48.845Z,27.13
2018-03-14T09:23:16.433Z,25.47
2018-03-14T09:25:44.006Z,33.30
2018-03-14T09:28:11.530Z,21.40
2018-03-14T09:30:40.070Z,23.33
2018-03-14T09:33:07.909Z,30.17
2018-03-14T09:35:35.542Z,26.20
2018-03-14T09:38:03.057Z,28.93
2018-03-14T09:40:30.604Z,24.43
2018-03-14T09:42:58.888Z,26.50
2018-03-14T09:45:27.115Z,22.57
2018-03-14T09:47:55.304Z,26.73
2018-03-14T09:50:22.871Z,24.27
2018-03-14T09:52:50.513Z,22.67
2018-03-14T09:55:18.096Z,23.57
2018-03-14T09:57:45.680Z,26.93
2018-03-14T10:00:14.971Z,23.43
2018-03-14T10:02:42.702Z,26.80
2018-03-14T10:05:10.257Z,20.77
2018-03-14T10:07:38.054Z,24.77
2018-03-14T10:10:05.632Z,24.80
2018-03-14T10:12:34.393Z,30.83
2018-03-14T10:15:01.907Z,24.70
2018-03-14T10:17:29.487Z,21.60
2018-03-14T10:19:57.215Z,20.10
2018-03-14T10:22:24.729Z,25.60
2018-03-14T10:24:52.308Z,24.20
2018-03-14T10:27:19.835Z,21.20
2018-03-14T10:29:47.363Z,18.73
2018-03-14T10:32:15.218Z,23.53
2018-03-14T10:34:42.889Z,22.00
2018-03-14T10:37:11.779Z,22.53
2018-03-14T10:39:39.415Z,25.60
2018-03-14T10:42:07.246Z,27.97
2018-03-14T10:44:34.955Z,26.83
2018-03-14T10:47:02.526Z,20.93
2018-03-14T10:49:30.155Z,33.10
2018-03-14T10:51:57.826Z,23.60
2018-03-14T10:54:26.295Z,22.77
2018-03-14T10:56:53.894Z,22.27
2018-03-14T10:59:21.413Z,30.20
2018-03-14T11:01:48.952Z,25.43
2018-03-14T11:04:16.474Z,25.83
2018-03-14T11:06:43.980Z,28.80
2018-03-14T11:09:11.515Z,19.73
2018-03-14T11:11:39.022Z,23.57
2018-03-14T11:14:06.895Z,24.30
2018-03-14T11:16:35.102Z,23.43
2018-03-14T11:19:02.603Z,24.40
2018-03-14T11:21:30.263Z,19.97
2018-03-14T11:23:58.809Z,27.23
2018-03-14T11:26:26.664Z,25.67
2018-03-14T11:28:54.204Z,22.80
2018-03-14T11:31:21.732Z,23.33
2018-03-14T11:33:49.305Z,22.80
2018-03-14T11:36:17.144Z,21.80
2018-03-14T11:38:44.812Z,31.27
2018-03-14T11:41:12.353Z,24.40
2018-03-14T11:43:39.913Z,24.33
2018-03-14T11:46:07.455Z,31.93
2018-03-14T11:48:34.985Z,26.63
2018-03-14T11:51:02.514Z,26.07
2018-03-14T11:53:30.042Z,27.90
2018-03-14T11:55:57.560Z,23.77
2018-03-14T11:58:25.109Z,26.93
2018-03-14T12:00:52.641Z,25.80
2018-03-14T12:03:20.561Z,26.20
2018-03-14T12:05:48.430Z,24.37
2018-03-14T12:08:15.939Z,29.67
2018-03-14T12:10:43.500Z,21.17
2018-03-14T12:13:11.986Z,22.20
2018-03-14T12:15:39.484Z,22.70
2018-03-14T12:18:07.165Z,26.10
2018-03-14T12:20:34.668Z,23.67
2018-03-14T12:23:02.199Z,25.50
2018-03-14T12:25:29.732Z,23.00
2018-03-14T12:27:57.304Z,24.07
2018-03-14T12:30:24.906Z,22.43
2018-03-14T12:32:52.549Z,24.87
2018-03-14T12:35:20.316Z,21.27
2018-03-14T12:37:48.389Z,23.57
2018-03-14T12:40:15.932Z,27.10
2018-03-14T12:42:43.451Z,27.10
2018-03-14T12:45:10.956Z,22.77
2018-03-14T12:47:38.702Z,22.07
2018-03-14T12:50:06.225Z,26.23
2018-03-14T12:52:33.778Z,23.00
2018-03-14T12:55:01.344Z,29.10
2018-03-14T12:57:28.860Z,27.30
2018-03-14T12:59:56.421Z,23.43
2018-03-14T13:02:23.984Z,22.17
2018-03-14T13:04:51.507Z,37.33
2018-03-14T13:07:19.014Z,27.73
2018-03-14T13:09:46.791Z,22.93
2018-03-14T13:12:14.634Z,22.80
2018-03-14T13:14:42.482Z,40.13
2018-03-14T13:17:10.010Z,25.47
2018-03-14T13:19:38.616Z,27.60
2018-03-14T13:22:06.128Z,25.00
2018-03-14T13:24:33.686Z,22.80
2018-03-14T13:27:01.211Z,25.20
2018-03-14T13:29:28.747Z,25.03
2018-03-14T13:31:56.443Z,24.27
2018-03-14T13:34:23.966Z,25.33
2018-03-14T13:36:51.762Z,28.50
2018-03-14T13:39:19.260Z,28.53
2018-03-14T13:41:46.813Z,23.40
2018-03-14T13:44:14.363Z,21.73
2018-03-14T13:46:41.932Z,25.47
2018-03-14T13:49:09.455Z,23.37
2018-03-14T13:51:37.222Z,23.87
2018-03-14T13:54:04.795Z,27.77
2018-03-14T13:56:32.332Z,27.90
2018-03-14T13:59:00.078Z,21.03
2018-03-14T14:01:27.786Z,19.93
2018-03-14T14:03:55.471Z,21.87
2018-03-14T14:06:23.055Z,30.30
2018-03-14T14:08:52.202Z,24.00
2018-03-14T14:11:19.819Z,17.00
2018-03-14T14:13:47.460Z,17.83
2018-03-14T14:16:15.249Z,17.53
2018-03-14T14:18:43.061Z,18.00
2018-03-14T14:21:10.757Z,20.40
2018-03-14T14:23:38.269Z,21.23
2018-03-14T14:26:05.899Z,18.60
2018-03-14T14:28:33.412Z,30.80
2018-03-14T14:31:00.939Z,19.87
2018-03-14T14:33:28.479Z,20.23
2018-03-14T14:35:56.057Z,19.27
2018-03-14T14:38:23.591Z,19.97
2018-03-14T14:40:51.107Z,20.90
2018-03-14T14:43:18.641Z,16.30
2018-03-14T14:45:46.142Z,19.90
2018-03-14T14:48:13.668Z,15.60
2018-03-14T14:50:41.390Z,22.43
2018-03-14T14:53:08.918Z,17.47
2018-03-14T14:55:36.465Z,16.40
2018-03-14T14:58:03.962Z,21.00
2018-03-14T15:00:31.477Z,15.90
2018-03-14T15:02:59.026Z,17.17
2018-03-14T15:05:26.546Z,23.30
2018-03-14T15:07:54.075Z,16.37
2018-03-14T15:10:21.878Z,15.73
2018-03-14T15:12:49.396Z,21.10
2018-03-14T15:15:17.037Z,19.40
2018-03-14T15:17:44.569Z,15.37
2018-03-14T15:20:12.131Z,17.67
2018-03-14T15:22:39.668Z,20.40
2018-03-14T15:25:07.221Z,16.10
2018-03-14T15:27:34.756Z,23.17
2018-03-14T15:30:02.299Z,15.83
2018-03-14T15:32:29.955Z,17.20
2018-03-14T15:34:57.524Z,14.47
2018-03-14T15:37:25.114Z,16.30
2018-03-14T15:39:52.652Z,16.37
2018-03-14T15:42:20.244Z,19.00
2018-03-14T15:44:47.801Z,13.53
2018-03-14T15:47:15.314Z,14.33
2018-03-14T15:49:43.110Z,15.27
2018-03-14T15:52:10.640Z,15.00
2018-03-14T15:54:38.531Z,16.90
2018-03-14T15:57:06.144Z,16.43
2018-03-14T15:59:33.711Z,16.13
2018-03-14T16:02:01.271Z,13.80
2018-03-14T16:04:28.816Z,16.67
2018-03-14T16:06:56.335Z,18.97
2018-03-14T16:09:24.035Z,18.63
2018-03-14T16:11:51.540Z,15.93
2018-03-14T16:14:19.096Z,21.33
2018-03-14T16:16:46.626Z,15.53
2018-03-14T16:19:14.307Z,16.60
2018-03-14T16:21:42.108Z,16.90
2018-03-14T16:24:09.633Z,18.90
2018-03-14T16:26:37.219Z,15.03
2018-03-14T16:29:04.750Z,16.97
2018-03-14T16:31:32.280Z,15.53
2018-03-14T16:33:59.910Z,24.03
2018-03-14T16:36:27.425Z,15.70
2018-03-14T16:38:54.960Z,14.57
2018-03-14T16:41:22.527Z,19.53
2018-03-14T16:43:50.040Z,17.13
2018-03-14T16:46:17.599Z,17.70
2018-03-14T16:48:45.136Z,17.27
2018-03-14T16:51:12.659Z,14.93
2018-03-14T16:53:40.179Z,16.43
2018-03-14T16:56:07.688Z,20.43
2018-03-14T16:58:35.262Z,17.10
2018-03-14T17:01:02.831Z,19.93
2018-03-14T17:03:30.333Z,20.43
2018-03-14T17:05:57.858Z,20.47
2018-03-14T17:08:25.363Z,18.50
2018-03-14T17:10:53.371Z,19.67
2018-03-14T17:13:21.240Z,18.73
2018-03-14T17:15:48.761Z,19.10
2018-03-14T17:18:16.315Z,16.20
2018-03-14T17:20:43.934Z,15.43
2018-03-14T17:23:11.539Z,21.50
2018-03-14T17:25:39.092Z,30.20
2018-03-14T17:28:06.631Z,17.03
2018-03-14T17:30:34.420Z,18.20
2018-03-14T17:33:02.012Z,19.10
2018-03-14T17:35:29.550Z,16.27
2018-03-14T17:37:57.055Z,16.83
2018-03-14T17:40:24.580Z,17.60
2018-03-14T17:42:52.079Z,17.33
2018-03-14T17:45:19.745Z,19.17
2018-03-14T17:47:47.324Z,15.60
2018-03-14T17:50:14.843Z,15.93
2018-03-14T17:52:42.376Z,17.70
2018-03-14T17:55:09.981Z,18.53
2018-03-14T17:57:37.669Z,18.77
2018-03-14T18:00:05.261Z,19.30
2018-03-14T18:02:32.780Z,19.63
2018-03-14T18:05:00.380Z,22.23
2018-03-14T18:07:28.141Z,15.77
2018-03-14T18:09:56.236Z,21.40
2018-03-14T18:12:23.737Z,19.27
2018-03-14T18:14:51.405Z,18.30
2018-03-14T18:17:19.014Z,19.60
2018-03-14T18:19:46.576Z,19.47
2018-03-14T18:22:14.140Z,24.63
2018-03-14T18:24:41.678Z,21.57
2018-03-14T18:27:09.461Z,21.30
2018-03-14T18:29:37.027Z,26.80
2018-03-14T18:32:04.881Z,20.57
2018-03-14T18:34:33.378Z,19.70
2018-03-14T18:37:01.198Z,24.30
2018-03-14T18:39:28.711Z,25.07
2018-03-14T18:41:56.247Z,29.23
2018-03-14T18:44:24.015Z,22.23
2018-03-14T18:46:51.609Z,26.27
2018-03-14T18:49:19.151Z,26.27
2018-03-14T18:51:46.667Z,29.23
2018-03-14T18:54:14.249Z,33.40
2018-03-14T18:56:41.754Z,28.57
2018-03-14T18:59:09.391Z,26.10
2018-03-14T19:01:37.139Z,25.40
2018-03-14T19:04:04.665Z,29.00
2018-03-14T19:06:32.202Z,25.10
2018-03-14T19:08:59.980Z,25.73
2018-03-14T19:11:27.600Z,25.10
2018-03-14T19:13:55.120Z,27.73
2018-03-14T19:16:22.626Z,24.50
2018-03-14T19:18:50.154Z,27.40
2018-03-14T19:21:17.664Z,17.70
2018-03-14T19:23:45.196Z,25.40
2018-03-14T19:26:12.724Z,25.43
2018-03-14T19:28:40.224Z,25.93
2018-03-14T19:31:07.741Z,26.77
2018-03-14T19:33:35.264Z,26.23
2018-03-14T19:36:02.799Z,22.70
2018-03-14T19:38:30.317Z,23.37
2018-03-14T19:40:57.816Z,19.10
2018-03-14T19:43:25.338Z,20.60
2018-03-14T19:45:52.822Z,21.17
2018-03-14T19:48:20.363Z,19.97
2018-03-14T19:50:48.679Z,21.83
2018-03-14T19:53:16.233Z,29.13
2018-03-14T19:55:43.806Z,19.30
2018-03-14T19:58:11.464Z,20.40
2018-03-14T20:00:39.113Z,23.67
2018-03-14T20:03:06.660Z,21.07
2018-03-14T20:05:34.192Z,18.40
2018-03-14T20:08:01.737Z,20.10
2018-03-14T20:10:29.243Z,21.73
2018-03-14T20:12:56.788Z,24.27
2018-03-14T20:15:24.297Z,19.93
2018-03-14T20:17:51.884Z,21.40
2018-03-14T20:20:21.168Z,21.07
2018-03-14T20:22:49.178Z,20.90
2018-03-14T20:25:16.913Z,24.43
2018-03-14T20:27:44.421Z,18.50
2018-03-14T20:30:19.220Z,20.03
2018-03-14T20:32:46.727Z,19.90
2018-03-14T20:35:14.255Z,19.70
2018-03-14T20:37:41.788Z,23.87
2018-03-14T20:40:10.783Z,19.87
2018-03-14T20:42:38.309Z,16.20
2018-03-14T20:45:06.023Z,17.33
2018-03-14T20:47:33.610Z,18.23
2018-03-14T20:50:01.334Z,25.40
2018-03-14T20:52:29.050Z,19.73
2018-03-14T20:54:56.932Z,23.07
2018-03-14T20:57:24.589Z,27.27
2018-03-14T20:59:52.128Z,27.20
2018-03-14T21:02:20.031Z,22.00
2018-03-14T21:04:47.577Z,33.07
2018-03-14T21:07:15.092Z,30.43
2018-03-14T21:09:42.624Z,31.53
2018-03-14T21:12:10.186Z,28.40
2018-03-14T21:14:38.212Z,29.03
2018-03-14T21:17:05.927Z,38.17
2018-03-14T21:19:36.381Z,33.77
2018-03-14T21:22:04.480Z,33.13
2018-03-14T21:24:32.112Z,34.03
2018-03-14T21:26:59.665Z,39.73
2018-03-14T21:29:27.260Z,40.40
2018-03-14T21:31:54.795Z,40.57
2018-03-14T21:34:22.401Z,38.40
2018-03-14T21:36:50.028Z,38.77
2018-03-14T21:39:17.682Z,41.10
2018-03-14T21:41:45.100Z,41.30
2018-03-14T21:44:13.104Z,41.20
2018-03-14T21:46:40.712Z,38.43
2018-03-14T21:49:08.252Z,42.13
2018-03-14T21:51:35.760Z,29.63
2018-03-14T21:54:03.319Z,38.63
2018-03-14T21:56:30.971Z,33.70
2018-03-14T21:58:58.515Z,25.80
2018-03-14T22:01:26.043Z,39.47
2018-03-14T22:03:53.596Z,28.67
2018-03-14T22:06:21.520Z,25.97
2018-03-14T22:08:49.001Z,32.60
2018-03-14T22:11:16.573Z,37.80
2018-03-14T22:13:44.104Z,26.17
2018-03-14T22:16:12.322Z,29.10
2018-03-14T22:18:39.847Z,25.67
2018-03-14T22:21:07.398Z,26.57
2018-03-14T22:23:34.972Z,30.73
2018-03-14T22:26:02.538Z,24.60
2018-03-14T22:28:30.104Z,26.70
2018-03-14T22:30:57.649Z,23.47
2018-03-14T22:33:25.177Z,22.60
2018-03-14T22:35:52.699Z,26.37
2018-03-14T22:38:20.220Z,25.17
2018-03-14T22:40:47.749Z,30.63
2018-03-14T22:43:15.256Z,25.53
2018-03-14T22:45:42.836Z,28.57
2018-03-14T22:48:10.375Z,32.03
2018-03-14T22:50:37.914Z,21.40
2018-03-14T22:53:05.580Z,22.77
2018-03-14T22:55:33.276Z,26.57
2018-03-14T22:58:00.871Z,23.23
2018-03-14T23:00:28.381Z,26.90
2018-03-14T23:02:55.964Z,24.03
2018-03-14T23:05:23.488Z,22.07
2018-03-14T23:07:51.007Z,27.33
2018-03-14T23:10:18.535Z,35.00
2018-03-14T23:12:46.051Z,22.13
2018-03-14T23:15:13.672Z,26.00
2018-03-14T23:17:41.173Z,30.27
2018-03-14T23:20:08.704Z,29.37
2018-03-14T23:22:36.489Z,28.20
2018-03-14T23:25:04.063Z,30.27
2018-03-14T23:27:31.574Z,28.70
2018-03-14T23:29:59.172Z,26.63
2018-03-14T23:32:27.044Z,38.17
2018-03-14T23:34:54.579Z,33.00
2018-03-14T23:37:22.092Z,29.37
2018-03-14T23:39:49.670Z,34.03
2018-03-14T23:42:17.205Z,28.07
2018-03-14T23:44:44.723Z,28.70
2018-03-14T23:47:12.385Z,25.43
2018-03-14T23:49:39.868Z,30.43
2018-03-14T23:52:07.412Z,24.80
2018-03-14T23:54:34.925Z,29.87
2018-03-14T23:57:02.758Z,27.60
2018-03-14T23:59:30.292Z,29.87
